Time;durP1;ratioP1;P1;durP2;ratioP2;P2;SDS_P1;SDS_P2;PMS_P1;PMS_P2;Temp;Humidity;BMP_temperature;BMP_pressure;BME280_temperature;BME280_humidity;BME280_pressure;Samples;Min_cycle;Max_cycle;Signal;HPM_P1;HPM_P2
2021/09/27 00:00:23;;;;;;;32.90;24.15;;;;;;;16.03;100.00;101070.41;4950326;28;20043;-83
2021/09/27 00:02:48;;;;;;;36.72;27.25;;;;;;;16.04;100.00;101073.94;4947153;28;20132;-82
2021/09/27 00:05:17;;;;;;;34.13;25.45;;;;;;;15.98;100.00;101081.81;4955941;28;20499;-83
2021/09/27 00:07:43;;;;;;;37.33;24.77;;;;;;;15.93;100.00;101073.41;4953837;28;20046;-82
2021/09/27 00:10:11;;;;;;;36.03;26.15;;;;;;;15.85;100.00;101070.81;4948170;28;20047;-82
2021/09/27 00:12:37;;;;;;;34.97;24.67;;;;;;;15.82;100.00;101071.22;4951403;28;20051;-81
2021/09/27 00:15:09;;;;;;;34.13;26.55;;;;;;;15.77;100.00;101062.84;4949885;28;20039;-83
2021/09/27 00:17:34;;;;;;;38.60;26.55;;;;;;;15.72;100.00;101065.28;4950813;28;20043;-82
2021/09/27 00:20:00;;;;;;;38.95;27.13;;;;;;;15.65;100.00;101064.34;4946083;28;20051;-83
2021/09/27 00:22:25;;;;;;;39.30;27.95;;;;;;;15.66;100.00;101063.31;4947086;28;20050;-84
2021/09/27 00:24:50;;;;;;;38.80;26.52;;;;;;;15.62;100.00;101064.72;4953009;28;20567;-82
2021/09/27 00:27:16;;;;;;;37.17;27.23;;;;;;;15.62;100.00;101067.41;4954673;28;20564;-83
2021/09/27 00:29:41;;;;;;;36.88;27.30;;;;;;;15.56;100.00;101067.19;4933807;28;20083;-82
2021/09/27 00:32:06;;;;;;;42.08;30.63;;;;;;;15.61;100.00;101063.06;4932651;28;20431;-82
2021/09/27 00:34:32;;;;;;;40.88;29.83;;;;;;;15.65;100.00;101061.63;4934291;28;20435;-84
2021/09/27 00:36:58;;;;;;;42.20;29.13;;;;;;;15.67;100.00;101065.00;4932218;28;20054;-82
2021/09/27 00:39:23;;;;;;;37.75;27.75;;;;;;;15.67;100.00;101073.94;4949565;28;20050;-81
2021/09/27 00:41:48;;;;;;;40.13;27.50;;;;;;;15.63;100.00;101077.22;4948374;28;20077;-82
2021/09/27 00:44:14;;;;;;;40.72;27.88;;;;;;;15.67;100.00;101075.81;4949028;28;20086;-82
2021/09/27 00:46:40;;;;;;;37.08;28.15;;;;;;;15.66;100.00;101069.56;4947698;28;20047;-81
2021/09/27 00:49:06;;;;;;;36.40;27.05;;;;;;;15.68;100.00;101072.09;4947437;28;20486;-86
2021/09/27 00:51:36;;;;;;;37.47;26.55;;;;;;;15.70;100.00;101078.16;4951792;28;20130;-82
2021/09/27 00:54:07;;;;;;;41.63;27.92;;;;;;;15.67;100.00;101073.09;4940594;28;20115;-82
2021/09/27 00:56:39;;;;;;;36.78;27.27;;;;;;;15.67;100.00;101078.50;4951352;28;20482;-83
2021/09/27 00:59:06;;;;;;;35.38;27.42;;;;;;;15.66;100.00;101072.28;4948332;28;20055;-85
2021/09/27 01:01:31;;;;;;;38.42;27.02;;;;;;;15.65;100.00;101070.59;4950891;28;20045;-82
2021/09/27 01:03:57;;;;;;;35.42;26.02;;;;;;;15.62;100.00;101078.25;4947827;28;20134;-81
2021/09/27 01:06:44;;;;;;;39.92;27.42;;;;;;;15.60;100.00;101078.44;4948711;28;20079;-82
2021/09/27 01:09:37;;;;;;;33.78;25.95;;;;;;;15.61;100.00;101073.88;4942998;28;20058;-81
2021/09/27 01:12:02;;;;;;;37.95;27.38;;;;;;;15.61;100.00;101072.00;4944623;28;20470;-82
2021/09/27 01:14:46;;;;;;;39.95;27.40;;;;;;;15.62;100.00;101073.66;4947128;28;20040;-81
2021/09/27 01:17:17;;;;;;;40.45;28.48;;;;;;;15.64;100.00;101073.50;4934728;28;20044;-82
2021/09/27 01:20:16;;;;;;;34.55;26.10;;;;;;;15.69;100.00;101065.69;4939511;28;20526;-81
2021/09/27 01:23:04;;;;;;;37.00;28.23;;;;;;;15.70;100.00;101061.94;4949868;28;20039;-82
2021/09/27 01:25:55;;;;;;;35.35;27.05;;;;;;;15.71;100.00;101064.47;4951758;28;20133;-83
2021/09/27 01:28:27;;;;;;;40.38;28.67;;;;;;;15.72;100.00;101059.88;4945015;28;20047;-82
2021/09/27 01:31:00;;;;;;;34.95;27.38;;;;;;;15.72;100.00;101059.88;4946426;28;20051;-81
2021/09/27 01:33:37;;;;;;;32.70;25.50;;;;;;;15.71;100.00;101060.91;4946030;28;20114;-86
2021/09/27 01:36:10;;;;;;;34.88;25.50;;;;;;;15.70;100.00;101059.22;4941928;28;20066;-82
2021/09/27 01:39:01;;;;;;;34.00;25.45;;;;;;;15.66;100.00;101057.91;4947842;28;20051;-83
2021/09/27 01:41:42;;;;;;;36.55;25.42;;;;;;;15.62;100.00;101053.91;4918213;29;20083;-82
2021/09/27 01:44:10;;;;;;;34.65;24.90;;;;;;;15.62;100.00;101056.59;4953257;28;20047;-82
2021/09/27 01:46:55;;;;;;;36.77;25.90;;;;;;;15.61;100.00;101060.34;4950449;28;20048;-82
2021/09/27 01:49:38;;;;;;;33.03;23.98;;;;;;;15.60;100.00;101058.69;4931971;28;20105;-82
2021/09/27 01:52:25;;;;;;;33.85;25.83;;;;;;;15.58;100.00;101062.41;4945879;28;20047;-85
2021/09/27 01:54:56;;;;;;;34.45;25.60;;;;;;;15.52;100.00;101055.03;4952199;28;20046;-83
2021/09/27 01:57:29;;;;;;;35.08;26.15;;;;;;;15.53;100.00;101045.91;4944112;28;20044;-83
2021/09/27 02:00:04;;;;;;;34.28;25.35;;;;;;;15.46;100.00;101044.16;4934987;28;20091;-83
2021/09/27 02:03:17;;;;;;;33.55;26.05;;;;;;;15.42;100.00;101046.41;4924913;28;20044;-82
2021/09/27 02:05:55;;;;;;;38.70;26.67;;;;;;;15.34;100.00;101041.13;4885806;28;20071;-84
2021/09/27 02:08:21;;;;;;;37.65;26.90;;;;;;;15.33;100.00;101034.00;4939859;28;20486;-83
2021/09/27 02:10:53;;;;;;;36.17;26.67;;;;;;;15.33;100.00;101032.16;4942249;28;20047;-83
2021/09/27 02:13:24;;;;;;;36.10;26.42;;;;;;;15.30;100.00;101032.50;4939685;28;20051;-86
2021/09/27 02:16:01;;;;;;;37.40;26.90;;;;;;;15.28;100.00;101041.88;4942335;28;20573;-83
2021/09/27 02:18:36;;;;;;;37.20;26.08;;;;;;;15.26;100.00;101022.28;4944235;28;20078;-85
2021/09/27 02:21:10;;;;;;;34.30;25.17;;;;;;;15.20;100.00;101029.28;4941840;28;20148;-83
2021/09/27 02:23:46;;;;;;;38.47;29.00;;;;;;;15.17;100.00;101032.38;4944035;28;20042;-83
2021/09/27 02:26:14;;;;;;;38.85;27.10;;;;;;;15.15;100.00;101030.88;4941638;28;20062;-82
2021/09/27 02:28:40;;;;;;;42.00;28.00;;;;;;;15.08;100.00;101026.22;4943148;28;20126;-83
2021/09/27 02:31:27;;;;;;;38.40;27.90;;;;;;;15.04;100.00;101024.91;4942630;28;20481;-82
2021/09/27 02:34:05;;;;;;;42.67;28.92;;;;;;;15.02;100.00;101024.28;4938727;28;20050;-87
2021/09/27 02:36:57;;;;;;;43.10;29.88;;;;;;;15.04;100.00;101019.50;4940859;28;20058;-86
2021/09/27 02:39:33;;;;;;;42.95;30.85;;;;;;;15.02;100.00;101024.28;4938379;28;20047;-82
2021/09/27 02:42:23;;;;;;;47.90;32.83;;;;;;;15.06;100.00;101019.34;4941323;28;20190;-83
2021/09/27 02:44:48;;;;;;;43.83;31.23;;;;;;;15.09;100.00;101017.09;4942772;28;20055;-83
2021/09/27 02:47:24;;;;;;;44.92;31.20;;;;;;;15.10;100.00;101020.63;4942603;28;20415;-83
2021/09/27 02:49:55;;;;;;;45.83;31.33;;;;;;;15.10;100.00;101024.19;4940259;28;20078;-84
2021/09/27 02:52:21;;;;;;;43.83;30.48;;;;;;;15.12;100.00;101021.28;4944925;28;20051;-84
2021/09/27 02:55:04;;;;;;;42.35;30.17;;;;;;;15.14;100.00;101013.84;4944903;28;20052;-83
2021/09/27 02:57:55;;;;;;;49.28;31.73;;;;;;;15.15;100.00;101020.06;4945128;28;20054;-84
2021/09/27 03:00:29;;;;;;;42.95;30.77;;;;;;;15.16;100.00;101021.72;4929038;28;20055;-83
2021/09/27 03:03:21;;;;;;;45.40;31.23;;;;;;;15.15;100.00;101012.78;4945119;28;20051;-82
2021/09/27 03:06:08;;;;;;;48.92;31.15;;;;;;;15.14;100.00;101013.84;4943816;28;20047;-82
2021/09/27 03:08:52;;;;;;;42.53;29.77;;;;;;;15.16;100.00;101011.75;4947312;28;20119;-82
2021/09/27 03:11:31;;;;;;;43.05;30.05;;;;;;;15.18;100.00;101007.00;4945540;28;20043;-82
2021/09/27 03:14:19;;;;;;;46.65;30.85;;;;;;;15.20;100.00;101001.44;4945748;28;20147;-82
2021/09/27 03:17:03;;;;;;;41.55;28.23;;;;;;;15.21;100.00;101003.91;4944761;28;20721;-83
2021/09/27 03:19:47;;;;;;;41.60;27.88;;;;;;;15.26;100.00;101006.06;4937766;28;20089;-84
2021/09/27 03:22:35;;;;;;;43.65;29.58;;;;;;;15.28;100.00;100996.75;4939878;28;20169;-84
2021/09/27 03:25:10;;;;;;;43.07;28.87;;;;;;;15.31;100.00;101003.63;4920541;29;20055;-84
2021/09/27 03:28:09;;;;;;;40.95;28.15;;;;;;;15.33;100.00;101007.84;4926254;28;20287;-83
2021/09/27 03:30:43;;;;;;;;;;;;;;;15.34;100.00;101004.09;4944171;28;20069;-82
2021/09/27 03:33:44;;;;;;;40.35;27.60;;;;;;;15.28;100.00;100998.63;4945722;28;19921;-83
2021/09/27 03:36:28;;;;;;;39.60;29.20;;;;;;;15.28;100.00;101007.56;4929224;28;20545;-84
2021/09/27 03:39:28;;;;;;;39.13;27.75;;;;;;;15.30;100.00;100997.38;4908100;29;20065;-83
2021/09/27 03:42:35;;;;;;;41.25;29.17;;;;;;;15.29;100.00;100998.41;4933172;28;20138;-83
2021/09/27 03:45:07;;;;;;;42.90;29.90;;;;;;;15.28;100.00;100998.63;4936284;28;20126;-86
2021/09/27 03:47:42;;;;;;;44.08;30.40;;;;;;;15.30;100.00;101008.19;4937362;28;20367;-84
2021/09/27 03:50:27;;;;;;;44.97;30.10;;;;;;;15.32;100.00;100999.91;4938447;28;20139;-83
2021/09/27 03:52:59;;;;;;;41.33;28.17;;;;;;;15.34;100.00;100997.84;4950527;28;20453;-83
2021/09/27 03:55:47;;;;;;;44.35;28.90;;;;;;;15.34;100.00;100992.44;4936418;28;20062;-83
2021/09/27 03:58:28;;;;;;;41.47;28.77;;;;;;;15.36;100.00;100990.38;4936132;28;20269;-85
2021/09/27 04:01:15;;;;;;;42.13;29.80;;;;;;;15.37;100.00;100992.06;4936496;28;20052;-83
2021/09/27 04:04:13;;;;;;;41.90;28.42;;;;;;;15.38;100.00;100999.13;4946661;28;20047;-83
2021/09/27 04:06:43;;;;;;;39.42;28.20;;;;;;;15.38;100.00;101001.84;4954852;28;20150;-83
2021/09/27 04:09:30;;;;;;;38.90;27.67;;;;;;;15.39;100.00;101008.06;4928631;28;20126;-84
2021/09/27 04:12:20;;;;;;;40.45;26.60;;;;;;;15.42;100.00;101005.00;4922111;28;20055;-83
2021/09/27 04:15:03;;;;;;;39.10;25.48;;;;;;;15.46;100.00;101012.53;4913646;29;20059;-84
2021/09/27 04:18:03;;;;;;;40.60;27.13;;;;;;;15.49;100.00;101000.50;4945470;28;20055;-83
2021/09/27 04:20:38;;;;;;;38.90;26.73;;;;;;;15.48;100.00;100999.69;4940239;28;20090;-83
2021/09/27 04:23:17;;;;;;;40.45;26.02;;;;;;;15.52;100.00;101000.13;4942034;28;20544;-84
2021/09/27 04:26:00;;;;;;;;;;;;;;;15.52;100.00;101000.94;4941669;28;20085;-85
2021/09/27 04:28:48;;;;;;;39.53;26.30;;;;;;;15.45;100.00;100996.50;4936647;28;19945;-86
2021/09/27 04:31:22;;;;;;;35.72;25.75;;;;;;;15.50;100.00;101003.00;4936687;28;20044;-84
2021/09/27 04:34:14;;;;;;;37.38;26.17;;;;;;;15.53;100.00;100993.66;4925565;28;20133;-87
2021/09/27 04:36:46;;;;;;;33.78;25.20;;;;;;;15.56;100.00;100986.03;4928834;28;20047;-83
2021/09/27 04:39:20;;;;;;;36.95;25.35;;;;;;;15.57;100.00;100993.09;4939308;28;20054;-84
2021/09/27 04:42:27;;;;;;;34.67;25.55;;;;;;;15.61;100.00;100982.72;4938446;28;20047;-84
2021/09/27 04:45:25;;;;;;;33.97;24.27;;;;;;;15.63;100.00;100977.16;4917796;29;20048;-84
2021/09/27 04:48:15;;;;;;;32.13;24.10;;;;;;;15.65;100.00;100994.00;4920035;29;20110;-84
2021/09/27 04:50:46;;;;;;;32.80;24.88;;;;;;;15.67;100.00;100976.53;4934132;28;20074;-84
2021/09/27 04:53:34;;;;;;;33.47;23.73;;;;;;;15.68;100.00;100982.81;4938272;28;20130;-86
2021/09/27 04:56:32;;;;;;;32.10;22.58;;;;;;;15.70;100.00;100980.78;4929793;28;20624;-84
2021/09/27 04:59:23;;;;;;;34.35;23.58;;;;;;;15.73;100.00;100983.09;4940079;28;20573;-86
2021/09/27 05:01:49;;;;;;;29.58;21.73;;;;;;;15.71;100.00;100986.00;4930936;28;20048;-85
2021/09/27 05:04:44;;;;;;;32.22;23.15;;;;;;;15.76;100.00;100985.41;4934573;28;20078;-84
2021/09/27 05:07:31;;;;;;;31.00;21.75;;;;;;;15.78;100.00;100988.75;4929216;28;20048;-85
2021/09/27 05:10:34;;;;;;;31.88;22.00;;;;;;;15.76;100.00;100988.09;4935634;28;20055;-84
2021/09/27 05:13:17;;;;;;;30.85;22.15;;;;;;;15.78;100.00;100991.47;4933098;28;20079;-86
2021/09/27 05:16:02;;;;;;;33.17;23.73;;;;;;;15.79;100.00;100980.47;4921589;28;20047;-85
2021/09/27 05:19:15;;;;;;;34.92;23.05;;;;;;;15.79;100.00;100979.59;4925169;28;20494;-84
2021/09/27 05:21:46;;;;;;;33.75;24.17;;;;;;;15.81;100.00;100985.66;4937036;28;20090;-84
2021/09/27 05:24:38;;;;;;;31.65;22.42;;;;;;;15.81;100.00;100977.56;4936553;28;20051;-85
2021/09/27 05:27:12;;;;;;;32.60;24.15;;;;;;;15.84;100.00;100971.75;4928921;28;20050;-86
2021/09/27 05:29:41;;;;;;;31.05;22.35;;;;;;;15.83;100.00;100971.97;4935275;28;20690;-84
2021/09/27 05:32:44;;;;;;;31.70;23.53;;;;;;;15.87;100.00;100976.78;4951252;28;20051;-85
2021/09/27 05:36:02;;;;;;;31.48;22.60;;;;;;;15.88;100.00;100964.94;4902447;29;20278;-85
2021/09/27 05:39:01;;;;;;;29.17;21.80;;;;;;;15.86;100.00;100969.69;4907933;29;20063;-84
2021/09/27 05:42:13;;;;;;;29.92;20.83;;;;;;;15.84;100.00;100966.34;4939649;28;20406;-87
2021/09/27 05:45:22;;;;;;;30.88;21.58;;;;;;;15.84;100.00;100966.34;4913074;28;20545;-86
2021/09/27 05:48:25;;;;;;;31.90;22.40;;;;;;;15.85;100.00;100962.59;4929067;28;20083;-83
2021/09/27 05:51:13;;;;;;;31.77;22.33;;;;;;;15.85;100.00;100968.00;4927172;28;20406;-86
2021/09/27 05:53:48;;;;;;;36.30;22.60;;;;;;;15.88;100.00;100966.78;4923619;28;20075;-84
2021/09/27 05:56:36;;;;;;;30.02;21.25;;;;;;;15.89;100.00;100961.19;4935318;28;20086;-85
2021/09/27 05:59:13;;;;;;;32.95;21.73;;;;;;;15.89;100.00;100969.31;4944276;28;20047;-84
2021/09/27 06:01:47;;;;;;;31.77;22.58;;;;;;;15.91;100.00;100961.84;4942175;28;20130;-83
2021/09/27 06:04:41;;;;;;;30.90;21.27;;;;;;;15.93;100.00;100959.75;4936162;28;20106;-84
2021/09/27 06:07:26;;;;;;;29.42;21.00;;;;;;;15.93;100.00;100954.34;4942123;28;20047;-83
2021/09/27 06:10:12;;;;;;;32.78;21.40;;;;;;;15.92;100.00;100955.38;4942423;28;20078;-83
2021/09/27 06:12:55;;;;;;;32.30;21.70;;;;;;;15.95;100.00;100957.69;4944006;28;20078;-84
2021/09/27 06:15:28;;;;;;;30.25;20.67;;;;;;;15.98;100.00;100951.88;4924041;28;20074;-85
2021/09/27 06:18:03;;;;;;;30.77;20.88;;;;;;;16.00;100.00;100955.25;4942935;28;20051;-84
2021/09/27 06:20:46;;;;;;;31.33;19.73;;;;;;;16.00;100.00;100955.25;4935399;28;20059;-84
2021/09/27 06:23:46;;;;;;;30.63;19.75;;;;;;;16.00;100.00;100966.06;4941502;28;20047;-84
2021/09/27 06:26:14;;;;;;;28.83;19.10;;;;;;;16.03;100.00;100951.31;4944181;28;20446;-86
2021/09/27 06:29:01;;;;;;;29.50;19.92;;;;;;;16.05;100.00;100953.81;4940599;28;20111;-84
2021/09/27 06:31:41;;;;;;;24.80;18.58;;;;;;;16.04;100.00;100944.03;4959366;28;20558;-83
2021/09/27 06:34:18;;;;;;;27.90;18.75;;;;;;;16.06;100.00;100941.97;4943187;28;20057;-84
2021/09/27 06:36:45;;;;;;;26.80;17.02;;;;;;;16.10;100.00;100940.53;4942086;28;20071;-87
2021/09/27 06:39:14;;;;;;;27.52;18.73;;;;;;;16.12;100.00;100936.59;4926828;28;20135;-84
2021/09/27 06:41:41;;;;;;;28.35;18.85;;;;;;;16.15;100.00;100935.34;4927367;28;20130;-84
2021/09/27 06:44:06;;;;;;;24.50;18.02;;;;;;;16.16;100.00;100931.59;4943930;28;20051;-85
2021/09/27 06:46:33;;;;;;;26.30;18.20;;;;;;;16.20;100.00;100932.91;4930209;28;20442;-88
2021/09/27 06:48:58;;;;;;;27.83;18.83;;;;;;;16.20;100.00;100931.03;4937884;28;20050;-85
2021/09/27 06:51:24;;;;;;;27.42;17.80;;;;;;;16.21;100.00;100924.56;4939280;28;20620;-85
2021/09/27 06:53:49;;;;;;;24.48;17.75;;;;;;;16.23;100.00;100921.69;4938556;28;20050;-84
2021/09/27 06:56:15;;;;;;;24.25;16.48;;;;;;;16.22;100.00;100915.41;4936756;28;20095;-84
2021/09/27 06:58:40;;;;;;;23.85;17.30;;;;;;;16.23;100.00;100922.50;4925131;29;20055;-84
2021/09/27 07:01:06;;;;;;;24.20;17.05;;;;;;;16.26;100.00;100926.69;4939281;28;20043;-87
2021/09/27 07:03:32;;;;;;;24.67;17.58;;;;;;;16.28;100.00;100924.59;4947066;28;20051;-84
2021/09/27 07:05:58;;;;;;;22.50;16.52;;;;;;;16.31;100.00;100926.91;4947813;28;20059;-85
2021/09/27 07:08:23;;;;;;;23.83;16.45;;;;;;;16.36;100.00;100929.88;4942858;28;20043;-84
2021/09/27 07:10:52;;;;;;;24.00;15.95;;;;;;;16.41;100.00;100926.56;4933073;28;20179;-88
2021/09/27 07:13:18;;;;;;;20.95;15.60;;;;;;;16.41;100.00;100919.28;4940298;28;20048;-85
2021/09/27 07:15:44;;;;;;;22.20;15.75;;;;;;;16.45;100.00;100917.00;4942435;28;20047;-84
2021/09/27 07:18:10;;;;;;;21.48;15.02;;;;;;;16.52;100.00;100925.19;4938580;28;20066;-83
2021/09/27 07:20:35;;;;;;;17.98;14.55;;;;;;;16.54;100.00;100926.63;4940825;28;20035;-84
2021/09/27 07:23:01;;;;;;;19.55;15.45;;;;;;;16.57;100.00;100918.13;4935494;28;20051;-89
2021/09/27 07:25:28;;;;;;;22.13;15.82;;;;;;;16.60;100.00;100923.16;4927206;29;20561;-83
2021/09/27 07:27:55;;;;;;;22.75;15.05;;;;;;;16.65;100.00;100919.81;4927617;29;20075;-86
2021/09/27 07:30:21;;;;;;;20.50;14.02;;;;;;;16.66;100.00;100927.75;4931255;28;20082;-82
2021/09/27 07:32:47;;;;;;;20.67;14.68;;;;;;;16.71;100.00;100935.25;4934079;28;20465;-81
2021/09/27 07:35:16;;;;;;;21.95;15.20;;;;;;;16.74;100.00;100929.44;4945382;28;20446;-86
2021/09/27 07:37:41;;;;;;;;;;;;;;;16.76;100.00;100927.41;4942965;28;20109;-82
2021/09/27 07:40:12;;;;;;;21.05;15.68;;;;;;;16.69;100.00;100935.47;4937446;28;19923;-87
2021/09/27 07:42:38;;;;;;;20.83;15.15;;;;;;;16.73;100.00;100930.50;4939450;28;20051;-83
2021/09/27 07:45:06;;;;;;;20.98;14.60;;;;;;;16.80;100.00;100917.84;4934916;28;20055;-85
2021/09/27 07:47:31;;;;;;;18.80;13.80;;;;;;;16.87;100.00;100934.97;4942987;28;20050;-84
2021/09/27 07:49:57;;;;;;;19.92;14.45;;;;;;;16.88;100.00;100925.78;4936608;28;20399;-83
2021/09/27 07:52:22;;;;;;;21.67;14.38;;;;;;;16.90;100.00;100931.00;4938580;28;20070;-84
2021/09/27 07:54:47;;;;;;;19.27;14.25;;;;;;;16.92;100.00;100916.22;4937462;28;20048;-84
2021/09/27 07:57:14;;;;;;;21.35;14.35;;;;;;;16.95;100.00;100919.56;4942395;28;20074;-87
2021/09/27 07:59:40;;;;;;;20.15;12.60;;;;;;;16.99;100.00;100918.13;4940270;28;20940;-84
2021/09/27 08:02:05;;;;;;;20.92;14.43;;;;;;;17.04;100.00;100904.78;4937073;28;20055;-84
2021/09/27 08:04:31;;;;;;;17.50;13.20;;;;;;;17.10;100.00;100895.84;4946202;28;20051;-84
2021/09/27 08:06:57;;;;;;;20.50;13.25;;;;;;;17.18;100.00;100901.09;4937826;28;20081;-84
2021/09/27 08:09:22;;;;;;;19.75;13.02;;;;;;;17.23;100.00;100903.16;4940721;28;20047;-89
2021/09/27 08:11:48;;;;;;;20.30;13.00;;;;;;;17.31;100.00;100892.94;4941592;28;20055;-85
2021/09/27 08:14:13;;;;;;;21.02;13.52;;;;;;;17.35;100.00;100894.22;4934447;28;20056;-83
2021/09/27 08:16:39;;;;;;;19.23;12.90;;;;;;;17.39;100.00;100894.63;4912201;29;20048;-86
2021/09/27 08:19:06;;;;;;;16.75;12.60;;;;;;;17.42;100.00;100898.81;4926943;28;20443;-85
2021/09/27 08:21:32;;;;;;;18.08;13.75;;;;;;;17.49;100.00;100894.22;4925636;28;20087;-90
2021/09/27 08:23:57;;;;;;;16.67;12.60;;;;;;;17.54;100.00;100898.00;4924591;28;20069;-83
2021/09/27 08:26:23;;;;;;;16.98;11.93;;;;;;;17.64;100.00;100900.31;4925887;28;20043;-84
2021/09/27 08:28:49;;;;;;;17.95;12.95;;;;;;;17.75;100.00;100896.13;4932341;28;20098;-84
2021/09/27 08:31:19;;;;;;;16.85;12.35;;;;;;;17.84;99.69;100892.19;4943653;28;20058;-85
2021/09/27 08:33:46;;;;;;;15.13;12.32;;;;;;;17.95;98.53;100893.44;4937645;28;20051;-88
2021/09/27 08:36:14;;;;;;;16.42;12.15;;;;;;;18.08;97.90;100890.69;4938512;28;20058;-87
2021/09/27 08:38:41;;;;;;;15.48;10.93;;;;;;;18.15;96.49;100899.66;4947211;28;20047;-84
2021/09/27 08:41:40;;;;;;;16.95;11.82;;;;;;;18.16;96.48;100892.38;4935290;28;20394;-84
2021/09/27 08:44:23;;;;;;;16.27;11.68;;;;;;;18.16;96.34;100890.47;4943112;28;20127;-83
2021/09/27 08:46:58;;;;;;;15.30;12.00;;;;;;;18.15;96.70;100891.50;4934604;28;20474;-84
2021/09/27 08:49:50;;;;;;;15.95;12.27;;;;;;;18.17;96.49;100892.16;4941563;28;20055;-84
2021/09/27 08:52:17;;;;;;;15.63;11.65;;;;;;;18.21;96.38;100882.53;4944429;28;20549;-87
2021/09/27 08:54:45;;;;;;;14.98;11.75;;;;;;;18.27;96.83;100887.13;4943238;28;20521;-85
2021/09/27 08:57:19;;;;;;;15.52;11.93;;;;;;;18.38;96.49;100877.47;4941844;28;20051;-83
2021/09/27 09:00:05;;;;;;;16.42;12.05;;;;;;;18.44;95.29;100876.63;4944208;28;20422;-84
2021/09/27 09:02:42;;;;;;;17.25;11.73;;;;;;;18.58;94.86;100885.53;4926363;28;20054;-87
2021/09/27 09:05:27;;;;;;;15.23;11.30;;;;;;;18.64;94.22;100882.00;4941271;28;20079;-86
2021/09/27 09:08:19;;;;;;;17.30;11.68;;;;;;;18.66;93.34;100882.59;4926146;28;20043;-87
2021/09/27 09:11:12;;;;;;;15.57;11.43;;;;;;;18.66;92.80;100876.31;4936763;28;20187;-84
2021/09/27 09:13:42;;;;;;;17.60;11.35;;;;;;;18.67;92.59;100881.56;4919878;29;20130;-83
2021/09/27 09:16:12;;;;;;;15.50;11.50;;;;;;;18.74;92.42;100864.41;4936977;28;20384;-87
2021/09/27 09:18:42;;;;;;;14.63;11.23;;;;;;;18.81;92.51;100865.19;4942165;28;20050;-84
2021/09/27 09:21:42;;;;;;;15.18;11.20;;;;;;;18.95;91.95;100855.94;4934431;28;20126;-87
2021/09/27 09:24:19;;;;;;;17.77;11.13;;;;;;;19.05;91.71;100872.63;4933547;28;20122;-85
2021/09/27 09:26:49;;;;;;;16.98;10.88;;;;;;;19.14;91.66;100871.31;4916162;29;20051;-85
2021/09/27 09:29:27;;;;;;;14.82;9.88;;;;;;;19.26;89.71;100876.03;4935700;28;20047;-86
2021/09/27 09:32:07;;;;;;;19.10;10.30;;;;;;;19.29;89.19;100862.00;4943847;28;20106;-84
2021/09/27 09:34:35;;;;;;;15.48;11.50;;;;;;;19.35;89.87;100852.94;4937359;28;20065;-89
2021/09/27 09:37:07;;;;;;;16.40;11.35;;;;;;;19.37;89.25;100853.56;4936505;28;20336;-85
2021/09/27 09:39:37;;;;;;;15.77;11.50;;;;;;;19.41;89.08;100848.50;4937777;28;20051;-85
2021/09/27 09:42:26;;;;;;;18.23;10.55;;;;;;;19.45;88.61;100858.75;4930981;28;20043;-83
2021/09/27 09:44:53;;;;;;;;;;;;;;;19.42;88.47;100851.03;4943562;28;20498;-84
2021/09/27 09:47:18;;;;;;;13.20;10.45;;;;;;;19.34;88.81;100856.75;4942559;28;20005;-84
2021/09/27 09:50:05;;;;;;;15.00;9.85;;;;;;;19.37;89.39;100845.41;4923410;29;20138;-84
2021/09/27 09:52:40;;;;;;;15.70;9.93;;;;;;;19.43;88.51;100847.25;4921085;29;20663;-84
2021/09/27 09:55:33;;;;;;;13.70;10.23;;;;;;;19.52;88.65;100850.53;4941954;28;20079;-83
2021/09/27 09:58:05;;;;;;;15.25;10.15;;;;;;;19.58;88.05;100855.06;4943788;28;20077;-84
2021/09/27 10:00:53;;;;;;;14.60;9.88;;;;;;;19.71;88.75;100848.69;4944017;28;20078;-84
2021/09/27 10:03:42;;;;;;;11.85;9.20;;;;;;;19.83;87.13;100853.22;4946839;28;20066;-86
2021/09/27 10:06:17;;;;;;;13.45;9.88;;;;;;;19.92;87.35;100859.19;4948148;28;20091;-84
2021/09/27 10:08:58;;;;;;;11.90;8.68;;;;;;;20.06;86.81;100860.72;4947141;28;20046;-87
2021/09/27 10:11:38;;;;;;;12.23;9.00;;;;;;;20.17;85.91;100859.16;4946718;28;20079;-85
2021/09/27 10:14:24;;;;;;;15.02;9.45;;;;;;;20.13;84.99;100859.81;4946629;28;20062;-85
2021/09/27 10:16:53;;;;;;;12.82;9.75;;;;;;;20.09;85.60;100864.06;4947610;28;20532;-84
2021/09/27 10:19:37;;;;;;;13.15;8.00;;;;;;;20.11;84.85;100867.38;4948234;28;20089;-84
2021/09/27 10:22:10;;;;;;;11.38;7.05;;;;;;;20.11;83.81;100857.34;4947237;28;20683;-84
2021/09/27 10:24:43;;;;;;;12.60;7.18;;;;;;;20.17;84.00;100863.75;4945548;28;20079;-84
2021/09/27 10:27:33;;;;;;;9.55;7.68;;;;;;;20.25;84.22;100858.00;4948312;28;20047;-84
2021/09/27 10:30:04;;;;;;;10.07;7.10;;;;;;;20.27;83.83;100854.00;4945539;28;20051;-84
2021/09/27 10:32:56;;;;;;;8.80;6.28;;;;;;;20.33;83.13;100849.53;4950372;28;20078;-85
2021/09/27 10:35:32;;;;;;;10.00;6.88;;;;;;;20.36;83.70;100859.97;4927312;28;20398;-84
2021/09/27 10:38:22;;;;;;;8.90;6.57;;;;;;;20.47;84.15;100858.41;4946919;28;20098;-84
2021/09/27 10:40:50;;;;;;;10.15;6.90;;;;;;;20.48;83.54;100857.31;4942954;28;20687;-83
2021/09/27 10:43:22;;;;;;;11.15;7.43;;;;;;;20.44;82.59;100848.78;4948396;28;20255;-84
2021/09/27 10:45:59;;;;;;;8.35;6.32;;;;;;;20.41;82.16;100854.69;4930860;28;20071;-85
2021/09/27 10:48:26;;;;;;;9.13;6.40;;;;;;;20.41;81.71;100846.50;4943889;28;20059;-88
2021/09/27 10:51:00;;;;;;;8.55;5.85;;;;;;;20.44;82.11;100848.78;4947495;28;20047;-84
2021/09/27 10:53:33;;;;;;;8.35;5.78;;;;;;;20.45;81.96;100834.09;4946478;28;20082;-89
2021/09/27 10:56:22;;;;;;;9.75;6.07;;;;;;;20.43;81.75;100840.84;4947275;28;20047;-86
2021/09/27 10:58:58;;;;;;;7.75;5.63;;;;;;;20.36;81.33;100835.47;4935000;28;20062;-86
2021/09/27 11:01:32;;;;;;;10.30;6.50;;;;;;;20.36;82.42;100840.91;4950845;28;20047;-84
2021/09/27 11:03:59;;;;;;;9.30;6.38;;;;;;;20.31;81.92;100829.84;4956793;28;20042;-84
2021/09/27 11:06:38;;;;;;;9.82;6.05;;;;;;;20.36;83.33;100832.72;4946752;28;20116;-84
2021/09/27 11:09:28;;;;;;;7.47;5.28;;;;;;;20.36;82.49;100831.91;4939421;28;20078;-85
2021/09/27 11:12:04;;;;;;;9.15;5.63;;;;;;;20.31;81.03;100832.56;4942439;28;20059;-84
2021/09/27 11:14:44;;;;;;;8.50;5.60;;;;;;;20.26;82.06;100832.44;4942367;28;20082;-84
2021/09/27 11:17:33;;;;;;;7.30;5.40;;;;;;;20.22;81.16;100842.94;4937115;28;20055;-84
2021/09/27 11:20:01;;;;;;;7.78;4.85;;;;;;;20.23;80.72;100841.06;4946516;28;20051;-83
2021/09/27 11:22:39;;;;;;;6.82;4.80;;;;;;;20.21;81.04;100835.00;4935592;28;20148;-84
2021/09/27 11:25:22;;;;;;;7.22;5.22;;;;;;;20.23;81.62;100844.63;4933035;28;20256;-84
2021/09/27 11:28:24;;;;;;;9.70;5.00;;;;;;;20.25;81.50;100842.53;4950349;28;20043;-83
2021/09/27 11:31:16;;;;;;;7.75;5.03;;;;;;;20.28;83.28;100849.38;4939079;28;20051;-83
2021/09/27 11:33:41;;;;;;;8.07;5.78;;;;;;;20.32;82.79;100833.44;4945098;28;20078;-86
2021/09/27 11:36:27;;;;;;;8.95;5.65;;;;;;;20.28;82.07;100838.47;4945856;28;21479;-84
2021/09/27 11:39:04;;;;;;;8.65;5.88;;;;;;;20.33;82.04;100818.75;4930820;28;20064;-82
2021/09/27 11:41:37;;;;;;;8.98;5.47;;;;;;;20.40;81.73;100824.91;4940215;28;20066;-83
2021/09/27 11:44:08;;;;;;;10.85;5.65;;;;;;;20.44;80.69;100810.63;4936098;28;20071;-86
2021/09/27 11:46:37;;;;;;;9.13;5.20;;;;;;;20.46;80.00;100804.97;4932452;28;20048;-87
2021/09/27 11:52:16;;;;;;;8.93;5.72;;;;;;;20.45;82.27;100806.81;4939144;28;19922;-84
2021/09/27 11:54:50;;;;;;;7.85;5.10;;;;;;;20.55;80.59;100810.97;4954585;28;20568;-83